Time;durP1;ratioP1;P1;durP2;ratioP2;P2;SDS_P1;SDS_P2;PMS_P1;PMS_P2;Temp;Humidity;BMP_temperature;BMP_pressure;BME280_temperature;BME280_humidity;BME280_pressure;Samples;Min_cycle;Max_cycle;Signal;HPM_P1;HPM_P2
2021/09/23 00:04:01;;;;;;;4.03;3.73;;;13.40;35.60;;;;;;10477472;28;20224;-78
2021/09/23 00:09:06;;;;;;;5.07;4.30;;;13.40;35.60;;;;;;10480030;28;20224;-78
2021/09/23 00:14:11;;;;;;;4.60;4.17;;;13.40;35.70;;;;;;10482791;28;20282;-78
2021/09/23 00:19:14;;;;;;;4.00;3.70;;;13.40;35.90;;;;;;10481658;28;20593;-79
2021/09/23 00:24:17;;;;;;;3.47;3.10;;;13.30;35.50;;;;;;10477829;28;20641;-79
2021/09/23 00:29:22;;;;;;;4.27;3.80;;;13.30;35.50;;;;;;10486075;28;20653;-79
2021/09/23 00:34:25;;;;;;;4.00;3.60;;;13.20;35.80;;;;;;10486961;28;20228;-79
2021/09/23 00:39:29;;;;;;;4.30;3.90;;;13.20;36.20;;;;;;10481941;28;20657;-79
2021/09/23 00:44:33;;;;;;;3.43;3.10;;;13.20;35.60;;;;;;10479980;28;20731;-80
2021/09/23 00:49:36;;;;;;;3.90;3.47;;;13.10;35.90;;;;;;10481572;28;20303;-79
2021/09/23 00:54:40;;;;;;;4.43;4.03;;;13.10;35.80;;;;;;10474976;28;20266;-79
2021/09/23 00:59:45;;;;;;;4.30;3.90;;;13.10;35.80;;;;;;10478890;28;20633;-79
2021/09/23 01:04:51;;;;;;;5.67;3.53;;;13.10;36.10;;;;;;10482763;28;20233;-79
2021/09/23 01:09:56;;;;;;;3.83;3.50;;;13.10;35.80;;;;;;10479774;28;20319;-79
2021/09/23 01:15:01;;;;;;;3.30;3.00;;;13.00;36.00;;;;;;10480576;28;20243;-79
2021/09/23 01:20:06;;;;;;;3.60;3.30;;;13.00;36.00;;;;;;10478045;28;20395;-79
2021/09/23 01:25:13;;;;;;;3.57;3.27;;;13.00;35.80;;;;;;10487710;28;20329;-79
2021/09/23 01:30:17;;;;;;;3.87;3.50;;;12.90;35.90;;;;;;10487586;28;20288;-79
2021/09/23 01:35:21;;;;;;;5.10;4.10;;;12.90;35.70;;;;;;10486865;28;20739;-79
2021/09/23 01:40:25;;;;;;;4.13;3.83;;;12.80;35.50;;;;;;10483360;28;20644;-79
2021/09/23 01:45:28;;;;;;;3.80;3.50;;;12.70;35.60;;;;;;10487927;28;20228;-79
2021/09/23 01:50:32;;;;;;;4.60;4.07;;;12.70;35.60;;;;;;10485563;28;20307;-79
2021/09/23 01:55:37;;;;;;;4.50;4.10;;;12.60;35.70;;;;;;10485699;28;20720;-79
2021/09/23 02:00:40;;;;;;;4.43;4.03;;;12.60;35.80;;;;;;10484804;28;20881;-79
2021/09/23 02:05:43;;;;;;;4.70;4.10;;;12.50;35.50;;;;;;10490909;28;20235;-79
2021/09/23 02:10:48;;;;;;;4.73;3.80;;;12.50;35.80;;;;;;10487250;28;20419;-79
2021/09/23 02:15:51;;;;;;;4.63;4.23;;;12.40;36.00;;;;;;10488103;28;20248;-79
2021/09/23 02:20:55;;;;;;;4.83;4.23;;;12.40;35.80;;;;;;10487845;28;20695;-79
2021/09/23 02:25:59;;;;;;;4.30;3.90;;;12.30;35.80;;;;;;10480749;28;20239;-79
2021/09/23 02:31:03;;;;;;;4.50;3.67;;;12.30;35.90;;;;;;10484726;28;20682;-79
2021/09/23 02:36:07;;;;;;;3.83;3.60;;;12.20;35.80;;;;;;10487154;28;20224;-79
2021/09/23 02:41:12;;;;;;;3.23;3.03;;;12.20;35.80;;;;;;10484007;28;20273;-79
2021/09/23 02:46:15;;;;;;;4.00;3.60;;;12.10;35.90;;;;;;10485142;28;20256;-79
2021/09/23 02:51:18;;;;;;;3.93;3.63;;;12.10;35.70;;;;;;10485959;28;20234;-79
2021/09/23 02:56:23;;;;;;;3.03;2.83;;;12.00;35.60;;;;;;10480673;28;20953;-79
2021/09/23 03:01:27;;;;;;;3.40;3.20;;;12.00;35.90;;;;;;10484036;28;20347;-80
2021/09/23 03:06:30;;;;;;;3.60;3.30;;;12.00;35.90;;;;;;10492012;28;20255;-79
2021/09/23 03:11:35;;;;;;;3.20;3.00;;;11.90;35.90;;;;;;10477796;28;20311;-79
2021/09/23 03:16:38;;;;;;;3.20;3.00;;;11.90;36.00;;;;;;10482176;28;20857;-79
2021/09/23 03:21:41;;;;;;;3.83;3.53;;;11.80;35.70;;;;;;10474715;28;20217;-79
2021/09/23 03:26:46;;;;;;;3.67;3.37;;;11.80;35.80;;;;;;10486566;28;20224;-79
2021/09/23 03:31:49;;;;;;;3.23;3.03;;;11.80;36.10;;;;;;10486091;28;20316;-80
2021/09/23 03:36:53;;;;;;;4.50;4.10;;;11.70;36.00;;;;;;10482456;28;20260;-79
2021/09/23 03:41:58;;;;;;;4.20;3.87;;;11.70;36.10;;;;;;10484482;28;20224;-80
2021/09/23 03:47:01;;;;;;;4.43;4.10;;;11.70;36.20;;;;;;10476068;28;20669;-80
2021/09/23 03:52:05;;;;;;;4.70;4.30;;;11.70;36.00;;;;;;10481474;28;20304;-79
2021/09/23 03:57:10;;;;;;;4.30;3.90;;;11.70;36.10;;;;;;10476997;28;20244;-79
2021/09/23 04:02:14;;;;;;;4.10;3.80;;;11.70;36.30;;;;;;10479041;28;20655;-79
2021/09/23 04:07:17;;;;;;;5.93;4.10;;;11.60;36.00;;;;;;10486518;28;20228;-80
2021/09/23 04:12:22;;;;;;;4.27;3.97;;;11.60;36.10;;;;;;10483376;28;20319;-81
2021/09/23 04:17:26;;;;;;;3.67;3.37;;;11.60;36.20;;;;;;10482200;28;20266;-80
2021/09/23 04:22:29;;;;;;;4.20;3.90;;;11.50;36.10;;;;;;10473507;28;20232;-80
2021/09/23 04:27:34;;;;;;;3.50;3.30;;;11.50;36.10;;;;;;10483951;28;20220;-80
2021/09/23 04:32:37;;;;;;;3.60;3.40;;;11.40;36.20;;;;;;10485214;28;20878;-80
2021/09/23 04:37:41;;;;;;;4.20;3.90;;;11.40;36.20;;;;;;10473874;28;20303;-73
2021/09/23 04:42:45;;;;;;;3.83;3.53;;;11.40;36.30;;;;;;10469927;28;20720;-78
2021/09/23 04:47:49;;;;;;;4.23;3.90;;;11.30;36.40;;;;;;10478573;28;20704;-78
2021/09/23 04:52:53;;;;;;;3.77;3.47;;;11.30;36.20;;;;;;10480080;28;20224;-78
2021/09/23 04:57:59;;;;;;;4.07;3.67;;;11.30;36.30;;;;;;10486590;28;20311;-78
2021/09/23 05:03:02;;;;;;;4.70;4.23;;;11.30;36.40;;;;;;10574599;22;20762;-75
2021/09/23 05:08:06;;;;;;;4.23;3.83;;;11.20;36.30;;;;;;10440877;28;20229;-78
2021/09/23 05:13:11;;;;;;;5.80;5.00;;;11.20;36.30;;;;;;10426284;28;20291;-78
2021/09/23 05:18:14;;;;;;;5.23;4.83;;;11.20;36.60;;;;;;10439966;28;20229;-79
2021/09/23 05:23:21;;;;;;;4.90;4.40;;;11.10;36.40;;;;;;10444192;28;20320;-77
2021/09/23 05:28:25;;;;;;;4.97;4.40;;;11.10;36.60;;;;;;10442520;28;20698;-78
2021/09/23 05:33:29;;;;;;;7.40;6.70;;;11.00;37.40;;;;;;10431189;28;20236;-78
2021/09/23 05:38:32;;;;;;;8.73;6.37;;;11.00;37.20;;;;;;10439299;28;20274;-82
2021/09/23 05:43:37;;;;;;;5.90;5.27;;;11.10;37.30;;;;;;10440948;28;20282;-82
2021/09/23 05:48:41;;;;;;;6.13;5.57;;;11.10;37.60;;;;;;10440042;28;20327;-82
2021/09/23 05:53:44;;;;;;;6.37;5.00;;;11.10;37.60;;;;;;10440608;28;20712;-82
2021/09/23 05:58:49;;;;;;;7.77;5.27;;;11.20;37.90;;;;;;10445377;28;20228;-82
2021/09/23 06:03:52;;;;;;;6.00;5.40;;;11.30;38.10;;;;;;10446736;28;20253;-81
2021/09/23 06:08:55;;;;;;;7.07;5.73;;;11.40;38.00;;;;;;10440471;28;20236;-82
2021/09/23 06:14:00;;;;;;;6.27;5.70;;;11.60;38.10;;;;;;10442904;28;20308;-82
2021/09/23 06:19:03;;;;;;;6.90;6.13;;;11.70;38.30;;;;;;10442305;28;20312;-82
2021/09/23 06:24:07;;;;;;;7.63;6.77;;;11.70;38.10;;;;;;10449436;28;20260;-80
2021/09/23 06:29:12;;;;;;;7.47;6.67;;;11.90;38.50;;;;;;10439808;28;20324;-82
2021/09/23 06:34:16;;;;;;;9.70;8.70;;;11.90;38.70;;;;;;10439391;28;20637;-82
2021/09/23 06:39:19;;;;;;;10.10;9.10;;;12.00;38.50;;;;;;10437040;28;20942;-82
2021/09/23 06:44:24;;;;;;;9.50;8.50;;;12.10;38.70;;;;;;10443381;28;20328;-82
2021/09/23 06:49:27;;;;;;;9.30;8.40;;;12.10;39.10;;;;;;10443842;28;20275;-83
2021/09/23 06:54:30;;;;;;;10.13;9.20;;;12.20;38.90;;;;;;10438791;28;20671;-83
2021/09/23 06:59:35;;;;;;;9.73;8.83;;;12.30;39.00;;;;;;10442677;28;20286;-82
2021/09/23 07:04:38;;;;;;;10.07;9.10;;;12.40;39.50;;;;;;10433472;28;20303;-82
2021/09/23 07:09:44;;;;;;;11.00;9.87;;;12.50;39.30;;;;;;10434069;28;20709;-83
2021/09/23 07:14:49;;;;;;;11.00;9.90;;;12.60;39.60;;;;;;10432737;28;20815;-82
2021/09/23 07:19:53;;;;;;;13.40;10.43;;;12.70;40.40;;;;;;10428738;28;20327;-71
2021/09/23 07:24:56;;;;;;;11.87;10.60;;;12.80;40.10;;;;;;10427323;28;20310;-71
2021/09/23 07:30:01;;;;;;;11.80;10.70;;;12.90;40.30;;;;;;10422537;28;20226;-71
2021/09/23 07:35:05;;;;;;;12.03;10.80;;;13.00;41.20;;;;;;10422386;28;20261;-72
2021/09/23 07:40:11;;;;;;;13.90;12.07;;;13.20;41.20;;;;;;10421965;28;20240;-71
2021/09/23 07:45:16;;;;;;;12.70;11.47;;;13.30;41.90;;;;;;10420451;28;20320;-72
2021/09/23 07:50:19;;;;;;;14.17;11.57;;;13.50;42.00;;;;;;10419244;28;20224;-71
2021/09/23 07:55:23;;;;;;;12.60;11.40;;;13.70;41.70;;;;;;10419703;28;20229;-72
2021/09/23 08:00:27;;;;;;;15.40;13.97;;;13.90;41.70;;;;;;10416640;28;20225;-72
2021/09/23 08:05:31;;;;;;;16.07;14.47;;;14.10;42.20;;;;;;10423089;28;20333;-72
2021/09/23 08:10:34;;;;;;;13.77;12.37;;;14.30;41.70;;;;;;10423657;28;20997;-72
2021/09/23 08:15:39;;;;;;;11.43;10.43;;;14.60;41.70;;;;;;10424661;28;20228;-72
2021/09/23 08:20:42;;;;;;;12.17;10.97;;;14.80;42.00;;;;;;10419383;28;20278;-72
2021/09/23 08:25:45;;;;;;;12.87;11.63;;;15.10;41.90;;;;;;10420180;28;20221;-71
2021/09/23 08:30:50;;;;;;;11.17;10.03;;;15.40;42.00;;;;;;10424143;28;20260;-71
2021/09/23 08:35:53;;;;;;;10.67;9.67;;;15.70;41.90;;;;;;10428909;28;20229;-72
2021/09/23 08:40:57;;;;;;;8.57;7.70;;;16.00;41.50;;;;;;10431813;28;20315;-72
2021/09/23 08:46:03;;;;;;;6.97;6.37;;;16.30;41.30;;;;;;10422864;28;20375;-71
2021/09/23 08:51:07;;;;;;;6.90;5.93;;;16.60;41.20;;;;;;10429172;28;20240;-73
2021/09/23 08:56:12;;;;;;;5.90;5.30;;;16.90;41.10;;;;;;10430929;28;20658;-72
2021/09/23 09:01:18;;;;;;;5.53;5.00;;;17.20;40.30;;;;;;10424829;28;20310;-72
2021/09/23 09:06:22;;;;;;;5.07;4.63;;;17.50;40.00;;;;;;10425336;28;20233;-71
2021/09/23 09:11:27;;;;;;;4.27;3.87;;;17.80;39.90;;;;;;10426812;28;20237;-72
2021/09/23 09:16:34;;;;;;;5.03;4.23;;;18.10;39.80;;;;;;10425117;28;20229;-71
2021/09/23 09:21:38;;;;;;;4.23;3.83;;;18.40;39.50;;;;;;10429530;28;20231;-71
2021/09/23 09:26:42;;;;;;;5.10;4.00;;;18.60;39.30;;;;;;10420830;28;20244;-71
2021/09/23 09:31:49;;;;;;;4.20;3.80;;;18.90;39.00;;;;;;10426333;28;20224;-71
2021/09/23 09:36:53;;;;;;;4.43;4.03;;;19.20;37.90;;;;;;10425428;28;20233;-72
2021/09/23 09:41:56;;;;;;;4.23;3.80;;;19.40;38.10;;;;;;10422798;28;20998;-72
2021/09/23 09:47:01;;;;;;;4.10;3.63;;;19.60;37.80;;;;;;10428844;28;20324;-71
2021/09/23 09:52:06;;;;;;;4.07;3.67;;;19.80;37.10;;;;;;10431169;28;20313;-71
2021/09/23 09:57:12;;;;;;;5.20;4.60;;;20.00;37.30;;;;;;10432309;28;20225;-72
2021/09/23 10:02:17;;;;;;;4.53;3.80;;;20.20;37.00;;;;;;10436348;28;20335;-72
2021/09/23 10:07:22;;;;;;;4.17;3.67;;;20.40;36.90;;;;;;10434347;28;20228;-72
2021/09/23 10:12:27;;;;;;;4.07;3.77;;;20.50;36.90;;;;;;10429007;28;20765;-72
2021/09/23 10:17:32;;;;;;;3.73;3.43;;;20.70;37.10;;;;;;10424590;28;20235;-72
2021/09/23 10:22:36;;;;;;;3.60;3.30;;;20.90;36.10;;;;;;10428844;28;20229;-72
2021/09/23 10:27:59;;;;;;;3.53;3.23;;;21.10;36.30;;;;;;10430094;28;20283;-72
2021/09/23 10:33:05;;;;;;;3.83;3.53;;;21.20;36.20;;;;;;10434957;28;20232;-76
2021/09/23 10:38:11;;;;;;;3.80;3.40;;;21.40;35.60;;;;;;10428538;28;20266;-71
2021/09/23 10:43:18;;;;;;;3.80;3.13;;;21.60;35.40;;;;;;10427928;28;20236;-71
2021/09/23 10:48:24;;;;;;;3.53;3.23;;;21.70;35.20;;;;;;10426393;28;20236;-71
2021/09/23 10:53:28;;;;;;;3.17;2.87;;;21.90;34.30;;;;;;10429603;28;20230;-72
2021/09/23 10:58:32;;;;;;;3.67;2.37;;;22.10;34.80;;;;;;10430722;28;20730;-72
2021/09/23 11:03:38;;;;;;;2.70;2.50;;;22.20;35.00;;;;;;10424292;28;20236;-72
2021/09/23 11:08:44;;;;;;;2.80;2.60;;;22.30;33.20;;;;;;10420538;28;20240;-72
2021/09/23 11:13:50;;;;;;;2.60;2.40;;;22.40;34.00;;;;;;10419074;28;20243;-72
2021/09/23 11:18:57;;;;;;;3.57;3.20;;;22.50;33.90;;;;;;10422946;28;20741;-72
2021/09/23 11:24:02;;;;;;;2.40;2.20;;;22.60;32.50;;;;;;10414962;28;20620;-72
2021/09/23 11:29:05;;;;;;;2.93;2.63;;;22.70;33.30;;;;;;10417609;28;20225;-72
2021/09/23 11:34:10;;;;;;;2.57;2.33;;;22.80;32.90;;;;;;10413449;28;21076;-72
2021/09/23 11:39:20;;;;;;;2.73;2.47;;;22.80;32.00;;;;;;10412284;28;20717;-72
2021/09/23 11:44:24;;;;;;;2.50;2.30;;;22.80;31.40;;;;;;10412566;28;20233;-73
2021/09/23 11:49:29;;;;;;;2.37;2.23;;;22.80;32.20;;;;;;10413527;28;20229;-72
2021/09/23 11:54:33;;;;;;;2.80;2.60;;;22.90;32.20;;;;;;10414356;28;20316;-72
2021/09/23 11:59:36;;;;;;;3.00;2.80;;;22.90;32.20;;;;;;10406194;28;20232;-72
2021/09/23 12:04:53;;;;;;;3.07;2.77;;;23.00;32.10;;;;;;10412196;28;20291;-72
2021/09/23 12:10:05;;;;;;;3.10;2.90;;;23.00;31.10;;;;;;10411497;28;20786;-72
2021/09/23 12:15:09;;;;;;;3.30;2.73;;;23.10;31.00;;;;;;10412992;28;20312;-73
2021/09/23 12:20:14;;;;;;;2.80;2.60;;;23.20;31.40;;;;;;10410622;28;20258;-73
2021/09/23 12:25:18;;;;;;;2.90;2.70;;;23.20;31.40;;;;;;10415451;28;20306;-72
2021/09/23 12:30:26;;;;;;;3.20;3.00;;;23.20;31.50;;;;;;10413015;28;20239;-72
2021/09/23 12:35:30;;;;;;;2.93;2.73;;;23.30;30.70;;;;;;10400926;28;20305;-72
2021/09/23 12:40:34;;;;;;;3.00;2.80;;;23.40;30.90;;;;;;10420571;28;20275;-72
2021/09/23 12:45:37;;;;;;;20.73;8.50;;;23.50;31.30;;;;;;10422606;28;20230;-72
2021/09/23 12:50:46;;;;;;;3.50;3.07;;;23.50;30.90;;;;;;10417827;28;20233;-72
2021/09/23 12:55:50;;;;;;;3.10;2.90;;;23.50;30.00;;;;;;10415642;28;20239;-73
2021/09/23 13:00:53;;;;;;;3.77;2.80;;;23.60;30.80;;;;;;10422355;28;20275;-72
2021/09/23 13:06:06;;;;;;;2.93;2.70;;;23.60;30.50;;;;;;10417295;28;20254;-73
2021/09/23 13:11:14;;;;;;;2.70;2.50;;;23.60;29.50;;;;;;10423440;28;20324;-73
2021/09/23 13:16:37;;;;;;;2.67;2.40;;;23.70;30.20;;;;;;10430821;28;20671;-72
2021/09/23 13:21:42;;;;;;;2.70;2.50;;;23.80;30.00;;;;;;10431658;28;20224;-72
2021/09/23 13:26:46;;;;;;;2.87;2.60;;;23.90;30.10;;;;;;10433496;28;20239;-72
2021/09/23 13:31:49;;;;;;;2.70;2.47;;;23.90;30.10;;;;;;10432518;28;20233;-72
2021/09/23 13:36:54;;;;;;;2.80;2.60;;;23.90;30.10;;;;;;10434890;28;20231;-72
2021/09/23 13:41:59;;;;;;;2.70;2.50;;;24.00;29.40;;;;;;10433190;28;20598;-72
2021/09/23 13:47:03;;;;;;;3.23;2.63;;;24.10;29.60;;;;;;10428792;28;20303;-73
2021/09/23 13:52:08;;;;;;;2.60;2.40;;;24.10;29.80;;;;;;10427891;28;20229;-72
2021/09/23 13:57:11;;;;;;;2.90;2.70;;;24.10;29.40;;;;;;10432028;28;20312;-72
2021/09/23 14:02:14;;;;;;;3.17;2.87;;;24.20;29.60;;;;;;10427657;28;20238;-72
2021/09/23 14:07:20;;;;;;;3.00;2.80;;;24.20;29.40;;;;;;10428972;28;20232;-72
2021/09/23 14:12:24;;;;;;;3.17;2.80;;;24.20;28.80;;;;;;10428758;28;20320;-72
2021/09/23 14:17:29;;;;;;;2.80;2.60;;;24.20;29.00;;;;;;10429952;28;20233;-72
2021/09/23 14:22:34;;;;;;;2.97;2.77;;;24.20;29.10;;;;;;10430303;28;20233;-72
2021/09/23 14:27:38;;;;;;;2.90;2.70;;;24.20;28.20;;;;;;10427570;28;20228;-72
2021/09/23 14:32:41;;;;;;;2.73;2.53;;;24.20;28.60;;;;;;10428832;28;20315;-72
2021/09/23 14:37:46;;;;;;;2.80;2.60;;;24.30;29.00;;;;;;10426086;28;20221;-72
2021/09/23 14:42:49;;;;;;;3.43;3.13;;;24.30;28.20;;;;;;10429418;28;20320;-72
2021/09/23 14:47:52;;;;;;;2.63;2.43;;;24.30;28.30;;;;;;10424758;28;20356;-72
2021/09/23 14:52:57;;;;;;;2.90;2.70;;;24.30;28.30;;;;;;10421757;28;20330;-72
2021/09/23 14:58:00;;;;;;;3.00;2.63;;;24.30;28.20;;;;;;10429714;28;20218;-72
2021/09/23 15:03:03;;;;;;;2.60;2.40;;;24.30;28.20;;;;;;10430280;28;20234;-72
2021/09/23 15:08:08;;;;;;;3.03;2.83;;;24.30;28.20;;;;;;10422663;28;20221;-73
2021/09/23 15:13:12;;;;;;;2.97;2.53;;;24.30;28.20;;;;;;10425058;28;20323;-77
2021/09/23 15:18:15;;;;;;;2.60;2.40;;;24.30;28.20;;;;;;10432348;28;20309;-74
2021/09/23 15:23:20;;;;;;;2.80;2.60;;;24.30;28.20;;;;;;10423116;28;20639;-74
2021/09/23 15:28:24;;;;;;;2.70;2.50;;;24.30;28.20;;;;;;10421148;28;20323;-74
2021/09/23 15:33:27;;;;;;;2.67;2.53;;;24.30;28.20;;;;;;10424202;28;20234;-73
2021/09/23 15:38:32;;;;;;;3.30;2.20;;;24.30;28.20;;;;;;10422997;28;20231;-74
2021/09/23 15:43:36;;;;;;;2.30;2.10;;;24.30;28.20;;;;;;10438069;23;20588;-75
2021/09/23 15:48:39;;;;;;;2.60;2.23;;;24.30;28.80;;;;;;10464619;28;20849;-76
2021/09/23 15:53:45;;;;;;;2.60;2.40;;;24.30;28.20;;;;;;10469207;28;20220;-76
2021/09/23 15:58:48;;;;;;;2.20;2.00;;;24.20;27.90;;;;;;10461066;28;20232;-75
2021/09/23 16:03:52;;;;;;;2.60;2.40;;;24.20;28.20;;;;;;10458805;28;20224;-76
2021/09/23 16:08:57;;;;;;;2.60;2.40;;;24.20;28.20;;;;;;10456996;28;20393;-75
2021/09/23 16:14:00;;;;;;;2.40;2.20;;;24.10;27.90;;;;;;10456151;28;20927;-75
2021/09/23 16:19:03;;;;;;;2.67;2.47;;;24.10;28.10;;;;;;10457498;28;20294;-75
2021/09/23 16:24:08;;;;;;;2.53;2.33;;;24.10;28.10;;;;;;10458124;28;20229;-75
2021/09/23 16:29:12;;;;;;;3.40;2.47;;;24.00;27.90;;;;;;10466671;28;20228;-76
2021/09/23 16:34:15;;;;;;;2.40;2.20;;;23.90;27.90;;;;;;10462818;28;20311;-75
2021/09/23 16:39:20;;;;;;;2.50;2.30;;;23.80;27.90;;;;;;10465212;28;20247;-75
2021/09/23 16:44:23;;;;;;;9.70;8.70;;;23.80;28.10;;;;;;10461122;28;20240;-75
2021/09/23 16:49:27;;;;;;;7.00;5.27;;;23.70;27.80;;;;;;10458206;28;20232;-75
2021/09/23 16:54:32;;;;;;;5.20;4.60;;;23.60;27.90;;;;;;10471697;28;20343;-75
2021/09/23 16:59:35;;;;;;;3.70;3.40;;;23.50;27.70;;;;;;10469528;28;20762;-75
2021/09/23 17:04:43;;;;;;;3.50;3.20;;;23.30;27.90;;;;;;10469598;28;20248;-74
2021/09/23 17:09:49;;;;;;;3.97;3.67;;;23.20;27.70;;;;;;10469493;28;20320;-75
2021/09/23 17:14:53;;;;;;;4.20;3.80;;;23.10;27.80;;;;;;10473060;28;20321;-74
2021/09/23 17:19:56;;;;;;;4.10;3.30;;;23.00;28.20;;;;;;10468283;28;20221;-75
2021/09/23 17:25:01;;;;;;;4.00;2.80;;;22.90;28.20;;;;;;10470136;28;20224;-75
2021/09/23 17:30:07;;;;;;;2.93;2.73;;;22.80;28.10;;;;;;10479553;28;20568;-75
2021/09/23 17:35:11;;;;;;;3.03;2.83;;;22.70;28.30;;;;;;10479052;28;20236;-75
2021/09/23 17:40:16;;;;;;;3.07;2.87;;;22.60;28.50;;;;;;10470427;28;21781;-75
2021/09/23 17:45:20;;;;;;;3.27;2.67;;;22.50;28.60;;;;;;10471632;28;20241;-75
2021/09/23 17:50:23;;;;;;;3.57;3.27;;;22.40;28.60;;;;;;10467728;28;20311;-75
2021/09/23 17:55:28;;;;;;;3.37;3.07;;;22.30;28.50;;;;;;10471967;28;20316;-74
2021/09/23 18:00:31;;;;;;;3.17;2.90;;;22.20;28.50;;;;;;10468194;28;20225;-74
2021/09/23 18:05:34;;;;;;;3.87;3.13;;;22.00;28.60;;;;;;10470670;28;20638;-74
2021/09/23 18:10:39;;;;;;;3.73;3.33;;;21.90;28.60;;;;;;10440533;28;20335;-75
2021/09/23 18:15:45;;;;;;;3.00;2.80;;;21.60;28.80;;;;;;10471022;28;20724;-74
2021/09/23 18:20:48;;;;;;;3.37;3.10;;;21.30;28.90;;;;;;10472576;28;20267;-74
2021/09/23 18:26:10;;;;;;;3.10;2.80;;;21.10;29.40;;;;;;10465412;28;20252;-74
2021/09/23 18:31:14;;;;;;;6.33;3.90;;;20.90;29.80;;;;;;10462218;28;20220;-74
2021/09/23 18:36:17;;;;;;;4.30;3.90;;;20.70;29.70;;;;;;10468998;28;20246;-74
2021/09/23 18:41:22;;;;;;;4.67;4.27;;;20.60;29.80;;;;;;10466941;28;20737;-75
2021/09/23 18:46:25;;;;;;;5.40;4.03;;;20.40;30.20;;;;;;10472543;28;20310;-74
2021/09/23 18:51:31;;;;;;;4.10;3.80;;;20.10;30.00;;;;;;10469589;28;20741;-75
2021/09/23 18:56:35;;;;;;;4.83;4.30;;;20.10;30.50;;;;;;10468114;28;20298;-74
2021/09/23 19:01:39;;;;;;;7.83;4.60;;;19.90;31.40;;;;;;10472197;28;20235;-75
2021/09/23 19:06:43;;;;;;;5.30;4.90;;;19.90;31.60;;;;;;10471925;28;20222;-74
2021/09/23 19:11:50;;;;;;;6.73;4.97;;;19.80;32.00;;;;;;10473968;28;20272;-75
2021/09/23 19:16:54;;;;;;;5.87;5.27;;;19.80;32.70;;;;;;10473166;28;20273;-75
2021/09/23 19:21:57;;;;;;;5.80;5.30;;;19.80;32.80;;;;;;10465297;28;20232;-75
2021/09/23 19:27:02;;;;;;;5.90;5.40;;;19.90;32.70;;;;;;10470221;28;20216;-75
2021/09/23 19:32:07;;;;;;;5.60;5.20;;;19.90;33.10;;;;;;10469583;28;20260;-73
2021/09/23 19:37:10;;;;;;;6.07;5.57;;;20.00;33.00;;;;;;10468791;28;20645;-74
2021/09/23 19:42:15;;;;;;;6.20;5.67;;;20.00;33.10;;;;;;10466330;28;20311;-74
2021/09/23 19:47:19;;;;;;;6.83;6.13;;;20.00;33.40;;;;;;10468870;28;20228;-74
2021/09/23 19:52:22;;;;;;;6.70;6.03;;;20.00;33.10;;;;;;10468188;28;20289;-73
2021/09/23 19:57:27;;;;;;;6.03;5.53;;;20.00;33.30;;;;;;10474387;28;20289;-74
2021/09/23 20:02:31;;;;;;;6.40;5.90;;;20.00;33.60;;;;;;10470434;28;20730;-74
2021/09/23 20:07:34;;;;;;;6.23;5.73;;;20.00;33.40;;;;;;10472229;28;20281;-73
2021/09/23 20:12:39;;;;;;;6.20;5.70;;;20.00;33.50;;;;;;10469292;28;20228;-74
2021/09/23 20:17:42;;;;;;;6.00;5.33;;;19.90;33.70;;;;;;10470845;28;20251;-74
2021/09/23 20:22:46;;;;;;;6.90;6.30;;;19.90;33.40;;;;;;10468014;28;21689;-75
2021/09/23 20:27:51;;;;;;;7.10;6.50;;;19.90;33.80;;;;;;10476384;28;20227;-74
2021/09/23 20:32:54;;;;;;;6.70;6.10;;;19.90;33.80;;;;;;10474155;28;20252;-75
2021/09/23 20:38:00;;;;;;;6.57;5.83;;;19.90;33.50;;;;;;10481543;28;20228;-74
2021/09/23 20:43:05;;;;;;;6.93;6.30;;;19.80;33.40;;;;;;10476799;28;20285;-73
2021/09/23 20:48:08;;;;;;;7.23;5.93;;;19.80;34.10;;;;;;10474300;28;20224;-74
2021/09/23 20:53:13;;;;;;;6.40;5.90;;;19.70;33.80;;;;;;10473469;28;20228;-73
2021/09/23 20:58:21;;;;;;;7.17;6.57;;;19.60;34.10;;;;;;10478322;28;20749;-74
2021/09/23 21:03:24;;;;;;;7.07;6.47;;;19.60;34.60;;;;;;10470941;28;20244;-75
2021/09/23 21:08:28;;;;;;;6.60;6.10;;;19.50;34.20;;;;;;10468244;28;20722;-75
2021/09/23 21:13:32;;;;;;;6.47;5.87;;;19.40;34.30;;;;;;10469946;28;20255;-74
2021/09/23 21:18:36;;;;;;;6.73;6.13;;;19.30;34.80;;;;;;10475443;28;20224;-75
2021/09/23 21:23:43;;;;;;;6.43;5.87;;;19.30;34.70;;;;;;10478135;28;20240;-75
2021/09/23 21:28:48;;;;;;;6.83;6.10;;;19.30;34.60;;;;;;10469651;28;20221;-75
2021/09/23 21:33:51;;;;;;;6.53;5.80;;;19.20;35.20;;;;;;10474535;28;20286;-75
2021/09/23 21:38:54;;;;;;;6.77;6.10;;;19.20;34.70;;;;;;10469161;28;20878;-75
2021/09/23 21:43:59;;;;;;;6.83;6.20;;;19.20;34.80;;;;;;10468119;28;20663;-75
2021/09/23 21:49:02;;;;;;;7.70;6.67;;;19.20;35.40;;;;;;10469391;28;20307;-75
2021/09/23 21:54:05;;;;;;;7.57;6.87;;;19.10;35.00;;;;;;10470319;28;20291;-75
2021/09/23 21:59:10;;;;;;;7.33;6.70;;;19.10;35.30;;;;;;10469214;28;20228;-75
2021/09/23 22:04:13;;;;;;;6.90;6.30;;;19.00;35.60;;;;;;10465802;28;20716;-75
2021/09/23 22:09:17;;;;;;;6.80;6.20;;;19.00;35.60;;;;;;10466545;28;20715;-74
2021/09/23 22:14:21;;;;;;;6.50;5.90;;;18.90;35.50;;;;;;10464405;28;20761;-75
2021/09/23 22:19:25;;;;;;;6.40;5.90;;;19.00;35.60;;;;;;10470486;28;20615;-74
2021/09/23 22:24:29;;;;;;;7.40;6.70;;;18.90;35.50;;;;;;10464102;28;20232;-75
2021/09/23 22:29:33;;;;;;;6.90;6.30;;;18.90;35.60;;;;;;10470889;28;20224;-75
2021/09/23 22:34:37;;;;;;;6.80;6.20;;;18.90;35.50;;;;;;10470792;28;20229;-75
2021/09/23 22:39:40;;;;;;;7.10;6.40;;;18.90;35.50;;;;;;10464546;28;20228;-76
2021/09/23 22:44:44;;;;;;;7.10;6.40;;;18.90;35.50;;;;;;10471517;28;20228;-75
2021/09/23 22:49:48;;;;;;;7.87;7.10;;;18.80;35.50;;;;;;10466784;28;20314;-74
2021/09/23 22:54:51;;;;;;;6.93;6.33;;;18.80;35.50;;;;;;10465645;28;20340;-75
2021/09/23 22:59:55;;;;;;;7.37;6.23;;;18.80;35.50;;;;;;10465565;28;20253;-74
2021/09/23 23:04:58;;;;;;;7.13;6.43;;;18.80;35.50;;;;;;10468006;28;20315;-75
2021/09/23 23:10:02;;;;;;;7.47;6.77;;;18.70;35.40;;;;;;10465028;28;20228;-75
2021/09/23 23:15:09;;;;;;;6.57;5.97;;;18.70;35.40;;;;;;10464920;28;20243;-76
2021/09/23 23:20:14;;;;;;;6.87;6.27;;;18.60;35.90;;;;;;10462332;28;20782;-76
2021/09/23 23:25:18;;;;;;;7.53;6.00;;;18.60;35.30;;;;;;10459633;28;20224;-75
2021/09/23 23:30:23;;;;;;;6.73;6.03;;;18.60;35.30;;;;;;10467811;28;20233;-76
2021/09/23 23:35:26;;;;;;;7.17;6.57;;;18.60;35.80;;;;;;10467812;28;20769;-75
2021/09/23 23:40:32;;;;;;;6.70;5.97;;;18.50;35.50;;;;;;10466742;28;20245;-75
2021/09/23 23:45:38;;;;;;;6.40;5.90;;;18.50;35.70;;;;;;10459048;28;20228;-74
2021/09/23 23:50:42;;;;;;;6.43;5.83;;;18.40;36.10;;;;;;10458054;28;20697;-75
2021/09/23 23:55:53;;;;;;;6.07;5.57;;;18.40;35.60;;;;;;10459571;28;20289;-75
